createdAt,value
2019-03-22T00:00:48.952Z,997.45
2019-03-22T00:01:48.894Z,997.40
2019-03-22T00:02:48.834Z,997.37
2019-03-22T00:03:48.773Z,997.41
2019-03-22T00:04:48.715Z,997.36
2019-03-22T00:05:48.656Z,997.36
2019-03-22T00:06:48.596Z,997.38
2019-03-22T00:07:48.847Z,997.32
2019-03-22T00:08:48.481Z,997.33
2019-03-22T00:09:48.419Z,997.37
2019-03-22T00:10:48.359Z,997.29
2019-03-22T00:11:48.301Z,997.30
2019-03-22T00:12:48.242Z,997.33
2019-03-22T00:13:48.184Z,997.28
2019-03-22T00:14:48.123Z,997.26
2019-03-22T00:15:48.064Z,997.28
2019-03-22T00:16:48.008Z,997.28
2019-03-22T00:17:47.948Z,997.29
2019-03-22T00:18:47.888Z,997.25
2019-03-22T00:19:47.829Z,997.22
2019-03-22T00:20:47.769Z,997.25
2019-03-22T00:21:47.710Z,997.24
2019-03-22T00:22:47.651Z,997.24
2019-03-22T00:23:47.593Z,997.24
2019-03-22T00:24:47.533Z,997.23
2019-03-22T00:25:47.474Z,997.27
2019-03-22T00:26:47.417Z,997.21
2019-03-22T00:27:47.355Z,997.22
2019-03-22T00:28:47.297Z,997.20
2019-03-22T00:29:47.238Z,997.22
2019-03-22T00:30:47.179Z,997.23
2019-03-22T00:31:47.118Z,997.23
2019-03-22T00:32:47.060Z,997.26
2019-03-22T00:33:47.002Z,997.21
2019-03-22T00:34:46.942Z,997.23
2019-03-22T00:35:46.883Z,997.24
2019-03-22T00:36:46.824Z,997.23
2019-03-22T00:37:46.768Z,997.20
2019-03-22T00:38:46.705Z,997.23
2019-03-22T00:39:46.646Z,997.18
2019-03-22T00:40:46.587Z,997.18
2019-03-22T00:41:46.528Z,997.15
2019-03-22T00:42:46.469Z,997.13
2019-03-22T00:43:46.409Z,997.11
2019-03-22T00:44:46.351Z,997.10
2019-03-22T00:45:46.295Z,997.07
2019-03-22T00:46:46.231Z,997.09
2019-03-22T00:47:46.176Z,997.06
2019-03-22T00:48:46.114Z,997.03
2019-03-22T00:49:46.056Z,996.97
2019-03-22T00:50:45.997Z,996.97
2019-03-22T00:51:45.935Z,996.98
2019-03-22T00:52:45.876Z,996.94
2019-03-22T00:53:45.818Z,996.92
2019-03-22T00:54:45.762Z,996.91
2019-03-22T00:55:45.701Z,996.88
2019-03-22T00:56:45.640Z,996.89
2019-03-22T00:57:45.582Z,996.87
2019-03-22T00:58:45.521Z,996.88
2019-03-22T00:59:45.461Z,996.82
2019-03-22T01:00:45.403Z,996.84
2019-03-22T01:01:45.344Z,996.86
2019-03-22T01:02:45.286Z,996.81
2019-03-22T01:03:45.226Z,996.85
2019-03-22T01:04:45.167Z,996.83
2019-03-22T01:05:45.107Z,996.84
2019-03-22T01:06:45.052Z,996.86
2019-03-22T01:07:44.991Z,996.86
2019-03-22T01:08:44.931Z,996.85
2019-03-22T01:09:44.874Z,996.88
2019-03-22T01:10:44.812Z,996.90
2019-03-22T01:11:44.752Z,996.89
2019-03-22T01:12:44.693Z,996.90
2019-03-22T01:13:44.634Z,996.88
2019-03-22T01:14:44.579Z,996.84
2019-03-22T01:15:44.515Z,996.86
2019-03-22T01:16:44.455Z,996.87
2019-03-22T01:17:44.460Z,996.86
2019-03-22T01:18:44.336Z,996.85
2019-03-22T01:19:44.277Z,996.87
2019-03-22T01:20:44.227Z,996.83
2019-03-22T01:21:44.159Z,996.85
2019-03-22T01:22:44.099Z,996.86
2019-03-22T01:23:44.045Z,996.84
2019-03-22T01:24:43.985Z,996.82
2019-03-22T01:25:43.925Z,996.84
2019-03-22T01:26:43.862Z,996.82
2019-03-22T01:27:43.805Z,996.83
2019-03-22T01:28:43.744Z,996.86
2019-03-22T01:29:43.686Z,996.84
2019-03-22T01:30:43.627Z,996.85
2019-03-22T01:31:43.568Z,996.80
2019-03-22T01:32:43.506Z,996.80
2019-03-22T01:33:43.461Z,996.84
2019-03-22T01:34:43.389Z,996.81
2019-03-22T01:35:43.331Z,996.80
2019-03-22T01:36:43.270Z,996.76
2019-03-22T01:37:43.215Z,996.82
2019-03-22T01:38:43.150Z,996.76
2019-03-22T01:39:43.091Z,996.73
2019-03-22T01:40:43.032Z,996.70
2019-03-22T01:41:42.975Z,996.75
2019-03-22T01:42:42.912Z,996.78
2019-03-22T01:43:42.856Z,996.75
2019-03-22T01:44:42.797Z,996.74
2019-03-22T01:45:42.735Z,996.76
2019-03-22T01:46:42.675Z,996.73
2019-03-22T01:47:42.617Z,996.76
2019-03-22T01:48:42.559Z,996.76
2019-03-22T01:49:42.499Z,996.74
2019-03-22T01:50:42.438Z,996.73
2019-03-22T01:51:42.380Z,996.75
2019-03-22T01:52:42.320Z,996.75
2019-03-22T01:53:42.261Z,996.74
2019-03-22T01:54:42.200Z,996.77
2019-03-22T01:55:42.142Z,996.75
2019-03-22T01:56:42.084Z,996.77
2019-03-22T01:57:52.534Z,996.75
2019-03-22T01:58:41.966Z,996.74
2019-03-22T01:59:41.905Z,996.72
2019-03-22T02:00:41.846Z,996.66
2019-03-22T02:01:41.786Z,996.68
2019-03-22T02:02:41.726Z,996.69
2019-03-22T02:03:41.666Z,996.69
2019-03-22T02:04:41.607Z,996.70
2019-03-22T02:05:41.549Z,996.72
2019-03-22T02:06:41.489Z,996.74
2019-03-22T02:07:41.429Z,996.73
2019-03-22T02:08:41.372Z,996.72
2019-03-22T02:09:41.311Z,996.72
2019-03-22T02:10:41.251Z,996.71
2019-03-22T02:11:41.191Z,996.72
2019-03-22T02:12:41.132Z,996.73
2019-03-22T02:13:41.073Z,996.70
2019-03-22T02:14:41.013Z,996.72
2019-03-22T02:15:40.954Z,996.71
2019-03-22T02:16:40.895Z,996.67
2019-03-22T02:17:40.835Z,996.70
2019-03-22T02:18:40.779Z,996.66
2019-03-22T02:19:40.715Z,996.66
2019-03-22T02:20:40.657Z,996.63
2019-03-22T02:21:40.597Z,996.62
2019-03-22T02:22:40.540Z,996.57
2019-03-22T02:23:40.479Z,996.53
2019-03-22T02:24:40.421Z,996.53
2019-03-22T02:25:40.359Z,996.51
2019-03-22T02:26:40.305Z,996.48
2019-03-22T02:27:40.240Z,996.50
2019-03-22T02:28:40.182Z,996.47
2019-03-22T02:29:40.124Z,996.48
2019-03-22T02:30:40.062Z,996.43
2019-03-22T02:31:40.003Z,996.48
2019-03-22T02:32:39.945Z,996.46
2019-03-22T02:33:39.885Z,996.44
2019-03-22T02:34:39.826Z,996.49
2019-03-22T02:35:39.770Z,996.48
2019-03-22T02:36:39.705Z,996.48
2019-03-22T02:37:39.646Z,996.49
2019-03-22T02:38:39.584Z,996.47
2019-03-22T02:39:39.726Z,996.50
2019-03-22T02:40:39.469Z,996.47
2019-03-22T02:41:39.421Z,996.49
2019-03-22T02:42:39.348Z,996.52
2019-03-22T02:43:39.297Z,996.50
2019-03-22T02:44:39.232Z,996.51
2019-03-22T02:45:39.169Z,996.53
2019-03-22T02:46:39.110Z,996.59
2019-03-22T02:47:39.050Z,996.60
2019-03-22T02:48:38.991Z,996.61
2019-03-22T02:49:38.936Z,996.58
2019-03-22T02:50:38.874Z,996.66
2019-03-22T02:51:38.813Z,996.64
2019-03-22T02:52:38.754Z,996.61
2019-03-22T02:53:38.865Z,996.58
2019-03-22T02:54:38.642Z,996.59
2019-03-22T02:55:38.588Z,996.56
2019-03-22T02:56:38.519Z,996.53
2019-03-22T02:57:38.456Z,996.50
2019-03-22T02:58:38.399Z,996.57
2019-03-22T02:59:38.337Z,996.58
2019-03-22T03:00:38.278Z,996.54
2019-03-22T03:01:38.248Z,996.55
2019-03-22T03:02:38.159Z,996.57
2019-03-22T03:03:38.099Z,996.57
2019-03-22T03:04:38.048Z,996.58
2019-03-22T03:05:37.986Z,996.56
2019-03-22T03:06:37.919Z,996.58
2019-03-22T03:07:37.859Z,996.58
2019-03-22T03:08:37.806Z,996.60
2019-03-22T03:09:37.741Z,996.59
2019-03-22T03:10:37.679Z,996.56
2019-03-22T03:11:37.620Z,996.59
2019-03-22T03:12:37.586Z,996.60
2019-03-22T03:13:37.503Z,996.63
2019-03-22T03:14:37.444Z,996.62
2019-03-22T03:15:37.383Z,996.62
2019-03-22T03:16:37.327Z,996.62
2019-03-22T03:17:37.271Z,996.61
2019-03-22T03:18:37.206Z,996.60
2019-03-22T03:19:37.154Z,996.60
2019-03-22T03:20:37.085Z,996.55
2019-03-22T03:21:37.025Z,996.60
2019-03-22T03:22:36.964Z,996.54
2019-03-22T03:23:36.907Z,996.57
2019-03-22T03:24:36.847Z,996.53
2019-03-22T03:25:36.791Z,996.56
2019-03-22T03:26:36.729Z,996.57
2019-03-22T03:27:36.669Z,996.56
2019-03-22T03:28:37.599Z,996.63
2019-03-22T03:29:36.548Z,996.63
2019-03-22T03:30:36.497Z,996.61
2019-03-22T03:31:36.430Z,996.60
2019-03-22T03:32:36.371Z,996.58
2019-03-22T03:33:36.321Z,996.58
2019-03-22T03:34:36.253Z,996.58
2019-03-22T03:35:36.189Z,996.62
2019-03-22T03:36:36.130Z,996.59
2019-03-22T03:37:36.077Z,996.59
2019-03-22T03:38:36.011Z,996.61
2019-03-22T03:39:35.951Z,996.62
2019-03-22T03:40:35.897Z,996.62
2019-03-22T03:41:35.832Z,996.67
2019-03-22T03:42:35.771Z,996.61
2019-03-22T03:43:35.714Z,996.60
2019-03-22T03:44:35.654Z,996.63
2019-03-22T03:45:35.793Z,996.67
2019-03-22T03:46:35.532Z,996.68
2019-03-22T03:47:35.474Z,996.68
2019-03-22T03:48:35.415Z,996.67
2019-03-22T03:49:35.356Z,996.72
2019-03-22T03:50:35.311Z,996.73
2019-03-22T03:51:35.236Z,996.70
2019-03-22T03:52:35.175Z,996.77
2019-03-22T03:53:49.792Z,996.75
2019-03-22T03:54:35.060Z,996.81
2019-03-22T03:55:35.019Z,996.76
2019-03-22T03:56:34.936Z,996.79
2019-03-22T03:57:34.879Z,996.77
2019-03-22T03:58:34.817Z,996.79
2019-03-22T03:59:34.759Z,996.78
2019-03-22T04:00:34.727Z,996.81
2019-03-22T04:01:34.639Z,996.77
2019-03-22T04:02:34.581Z,996.72
2019-03-22T04:03:34.519Z,996.72
2019-03-22T04:04:34.468Z,996.74
2019-03-22T04:05:34.401Z,996.72
2019-03-22T04:06:34.339Z,996.71
2019-03-22T04:07:34.281Z,996.76
2019-03-22T04:08:34.220Z,996.72
2019-03-22T04:09:34.161Z,996.74
2019-03-22T04:10:34.479Z,996.73
2019-03-22T04:11:34.041Z,996.73
2019-03-22T04:12:33.982Z,996.68
2019-03-22T04:13:44.902Z,996.70
2019-03-22T04:14:33.866Z,996.68
2019-03-22T04:15:33.801Z,996.68
2019-03-22T04:16:33.747Z,996.62
2019-03-22T04:17:33.682Z,996.60
2019-03-22T04:18:33.622Z,996.65
2019-03-22T04:19:33.561Z,996.66
2019-03-22T04:20:33.503Z,996.63
2019-03-22T04:21:33.443Z,996.63
2019-03-22T04:22:36.219Z,996.61
2019-03-22T04:23:48.298Z,996.66
2019-03-22T04:24:33.263Z,996.62
2019-03-22T04:25:33.213Z,996.62
2019-03-22T04:26:33.144Z,996.67
2019-03-22T04:27:33.084Z,996.63
2019-03-22T04:28:33.032Z,996.66
2019-03-22T04:29:32.965Z,996.70
2019-03-22T04:30:32.909Z,996.66
2019-03-22T04:31:32.843Z,996.71
2019-03-22T04:32:32.787Z,996.71
2019-03-22T04:33:32.726Z,996.73
2019-03-22T04:34:32.668Z,996.73
2019-03-22T04:35:32.604Z,996.80
2019-03-22T04:36:32.546Z,996.75
2019-03-22T04:37:32.498Z,996.78
2019-03-22T04:38:32.426Z,996.82
2019-03-22T04:39:32.365Z,996.86
2019-03-22T04:40:32.308Z,996.82
2019-03-22T04:41:32.247Z,996.85
2019-03-22T04:42:32.186Z,996.86
2019-03-22T04:43:32.129Z,996.85
2019-03-22T04:44:32.068Z,996.79
2019-03-22T04:45:32.008Z,996.79
2019-03-22T04:46:31.947Z,996.78
2019-03-22T04:47:31.886Z,996.78
2019-03-22T04:48:31.829Z,996.81
2019-03-22T04:49:31.767Z,996.80
2019-03-22T04:50:31.706Z,996.83
2019-03-22T04:51:31.646Z,996.80
2019-03-22T04:52:31.589Z,996.84
2019-03-22T04:53:31.528Z,996.86
2019-03-22T04:54:31.467Z,996.94
2019-03-22T04:55:31.408Z,996.85
2019-03-22T04:56:31.348Z,996.90
2019-03-22T04:57:31.288Z,996.91
2019-03-22T04:58:31.228Z,996.95
2019-03-22T04:59:31.167Z,996.94
2019-03-22T05:00:31.108Z,996.92
2019-03-22T05:01:31.053Z,996.93
2019-03-22T05:02:30.987Z,996.93
2019-03-22T05:03:30.931Z,996.93
2019-03-22T05:04:30.869Z,996.99
2019-03-22T05:05:30.812Z,997.01
2019-03-22T05:06:30.750Z,996.97
2019-03-22T05:07:30.688Z,996.98
2019-03-22T05:08:30.630Z,997.03
2019-03-22T05:09:30.570Z,996.96
2019-03-22T05:10:30.508Z,997.00
2019-03-22T05:11:30.450Z,997.00
2019-03-22T05:12:30.451Z,996.97
2019-03-22T05:13:30.329Z,996.98
2019-03-22T05:14:30.270Z,997.03
2019-03-22T05:15:30.210Z,997.04
2019-03-22T05:16:30.149Z,996.99
2019-03-22T05:17:30.091Z,997.01
2019-03-22T05:18:30.028Z,997.01
2019-03-22T05:19:29.970Z,996.99
2019-03-22T05:20:29.942Z,997.02
2019-03-22T05:21:29.850Z,996.98
2019-03-22T05:22:29.790Z,997.03
2019-03-22T05:23:29.730Z,997.02
2019-03-22T05:24:29.670Z,997.01
2019-03-22T05:25:29.613Z,997.02
2019-03-22T05:26:29.568Z,997.00
2019-03-22T05:27:29.494Z,997.00
2019-03-22T05:28:29.431Z,997.00
2019-03-22T05:29:30.917Z,996.99
2019-03-22T05:30:29.311Z,996.99
2019-03-22T05:31:29.250Z,997.05
2019-03-22T05:32:29.190Z,997.01
2019-03-22T05:33:29.130Z,997.04
2019-03-22T05:34:29.070Z,997.08
2019-03-22T05:35:29.012Z,997.07
2019-03-22T05:36:28.950Z,997.06
2019-03-22T05:37:28.892Z,997.02
2019-03-22T05:38:28.830Z,997.02
2019-03-22T05:39:28.770Z,997.05
2019-03-22T05:40:28.709Z,997.04
2019-03-22T05:41:28.653Z,997.00
2019-03-22T05:42:28.592Z,997.02
2019-03-22T05:43:28.530Z,997.02
2019-03-22T05:44:28.476Z,997.01
2019-03-22T05:45:28.409Z,997.02
2019-03-22T05:46:28.348Z,997.03
2019-03-22T05:47:28.290Z,997.00
2019-03-22T05:48:28.232Z,997.00
2019-03-22T05:49:28.169Z,997.01
2019-03-22T05:50:28.109Z,997.05
2019-03-22T05:51:28.049Z,997.06
2019-03-22T05:52:27.989Z,997.09
2019-03-22T05:53:27.930Z,997.10
2019-03-22T05:54:27.869Z,997.11
2019-03-22T05:55:27.809Z,997.10
2019-03-22T05:56:27.749Z,997.09
2019-03-22T05:57:27.690Z,997.10
2019-03-22T05:58:27.628Z,997.09
2019-03-22T05:59:27.569Z,997.09
2019-03-22T06:00:27.508Z,997.08
2019-03-22T06:01:27.449Z,997.06
2019-03-22T06:02:27.387Z,997.11
2019-03-22T06:03:27.329Z,997.08
2019-03-22T06:04:27.267Z,997.06
2019-03-22T06:05:27.212Z,997.10
2019-03-22T06:06:27.146Z,997.14
2019-03-22T06:07:27.089Z,997.13
2019-03-22T06:08:27.028Z,997.13
2019-03-22T06:09:26.968Z,997.16
2019-03-22T06:10:26.907Z,997.18
2019-03-22T06:11:26.847Z,997.22
2019-03-22T06:12:26.791Z,997.22
2019-03-22T06:13:26.727Z,997.22
2019-03-22T06:14:26.668Z,997.23
2019-03-22T06:15:26.612Z,997.25
2019-03-22T06:16:26.549Z,997.26
2019-03-22T06:17:26.487Z,997.29
2019-03-22T06:18:26.426Z,997.30
2019-03-22T06:19:26.367Z,997.34
2019-03-22T06:20:26.306Z,997.28
2019-03-22T06:21:26.247Z,997.30
2019-03-22T06:22:26.185Z,997.29
2019-03-22T06:23:26.130Z,997.30
2019-03-22T06:24:26.066Z,997.29
2019-03-22T06:25:26.006Z,997.27
2019-03-22T06:26:25.944Z,997.28
2019-03-22T06:27:25.887Z,997.24
2019-03-22T06:28:25.826Z,997.27
2019-03-22T06:29:25.765Z,997.28
2019-03-22T06:30:25.704Z,997.27
2019-03-22T06:31:25.644Z,997.31
2019-03-22T06:32:25.591Z,997.31
2019-03-22T06:33:25.525Z,997.31
2019-03-22T06:34:25.463Z,997.30
2019-03-22T06:35:25.410Z,997.31
2019-03-22T06:36:25.344Z,997.33
2019-03-22T06:37:25.287Z,997.35
2019-03-22T06:38:25.223Z,997.36
2019-03-22T06:39:25.162Z,997.37
2019-03-22T06:40:25.109Z,997.39
2019-03-22T06:41:25.044Z,997.39
2019-03-22T06:42:24.982Z,997.41
2019-03-22T06:43:24.923Z,997.40
2019-03-22T06:44:24.862Z,997.40
2019-03-22T06:45:24.805Z,997.44
2019-03-22T06:46:24.742Z,997.44
2019-03-22T06:47:24.681Z,997.39
2019-03-22T06:48:24.622Z,997.47
2019-03-22T06:49:24.562Z,997.44
2019-03-22T06:50:24.504Z,997.39
2019-03-22T06:51:24.442Z,997.39
2019-03-22T06:52:24.384Z,997.41
2019-03-22T06:53:24.322Z,997.42
2019-03-22T06:54:31.581Z,997.43
2019-03-22T06:55:24.202Z,997.43
2019-03-22T06:56:24.140Z,997.45
2019-03-22T06:57:24.082Z,997.47
2019-03-22T06:58:24.365Z,997.45
2019-03-22T06:59:23.961Z,997.53
2019-03-22T07:00:23.899Z,997.50
2019-03-22T07:01:23.844Z,997.53
2019-03-22T07:02:23.779Z,997.54
2019-03-22T07:03:23.720Z,997.54
2019-03-22T07:04:23.662Z,997.58
2019-03-22T07:05:23.607Z,997.55
2019-03-22T07:06:23.538Z,997.57
2019-03-22T07:07:23.481Z,997.53
2019-03-22T07:08:23.418Z,997.53
2019-03-22T07:09:23.359Z,997.50
2019-03-22T07:10:23.298Z,997.52
2019-03-22T07:11:23.236Z,997.49
2019-03-22T07:12:23.178Z,997.47
2019-03-22T07:13:23.120Z,997.47
2019-03-22T07:14:23.059Z,997.49
2019-03-22T07:15:22.996Z,997.46
2019-03-22T07:16:22.951Z,997.45
2019-03-22T07:17:22.881Z,997.45
2019-03-22T07:18:22.815Z,997.49
2019-03-22T07:19:22.755Z,997.43
2019-03-22T07:20:22.696Z,997.46
2019-03-22T07:21:22.635Z,997.45
2019-03-22T07:22:22.576Z,997.41
2019-03-22T07:23:22.519Z,997.40
2019-03-22T07:24:22.454Z,997.39
2019-03-22T07:25:22.398Z,997.40
2019-03-22T07:26:22.338Z,997.43
2019-03-22T07:27:22.274Z,997.37
2019-03-22T07:28:22.214Z,997.42
2019-03-22T07:29:22.155Z,997.44
2019-03-22T07:30:22.099Z,997.41
2019-03-22T07:31:22.032Z,997.41
2019-03-22T07:32:21.977Z,997.41
2019-03-22T07:33:21.913Z,997.42
2019-03-22T07:34:21.853Z,997.40
2019-03-22T07:35:21.792Z,997.45
2019-03-22T07:36:21.734Z,997.41
2019-03-22T07:37:21.673Z,997.46
2019-03-22T07:38:21.612Z,997.42
2019-03-22T07:39:21.552Z,997.41
2019-03-22T07:40:21.494Z,997.43
2019-03-22T07:41:21.432Z,997.43
2019-03-22T07:42:21.371Z,997.39
2019-03-22T07:43:21.311Z,997.42
2019-03-22T07:44:21.253Z,997.38
2019-03-22T07:45:21.202Z,997.43
2019-03-22T07:46:21.133Z,997.42
2019-03-22T07:47:21.072Z,997.41
2019-03-22T07:48:21.016Z,997.38
2019-03-22T07:49:20.955Z,997.34
2019-03-22T07:50:20.891Z,997.35
2019-03-22T07:51:20.838Z,997.37
2019-03-22T07:52:20.770Z,997.34
2019-03-22T07:53:20.713Z,997.34
2019-03-22T07:54:20.649Z,997.32
2019-03-22T07:55:20.589Z,997.29
2019-03-22T07:56:20.533Z,997.27
2019-03-22T07:57:20.473Z,997.26
2019-03-22T07:58:20.408Z,997.20
2019-03-22T07:59:20.354Z,997.20
2019-03-22T08:00:30.120Z,997.18
2019-03-22T08:01:20.232Z,997.17
2019-03-22T08:02:20.168Z,997.13
2019-03-22T08:03:20.107Z,997.13
2019-03-22T08:04:20.050Z,997.19
2019-03-22T08:05:19.988Z,997.20
2019-03-22T08:06:19.928Z,997.25
2019-03-22T08:07:19.868Z,997.29
2019-03-22T08:08:19.809Z,997.28
2019-03-22T08:09:19.748Z,997.31
2019-03-22T08:10:19.688Z,997.30
2019-03-22T08:11:19.627Z,997.27
2019-03-22T08:12:19.691Z,997.25
2019-03-22T08:13:19.510Z,997.22
2019-03-22T08:14:19.501Z,997.20
2019-03-22T08:15:19.395Z,997.23
2019-03-22T08:16:19.328Z,997.20
2019-03-22T08:17:19.266Z,997.27
2019-03-22T08:18:19.208Z,997.24
2019-03-22T08:19:19.150Z,997.22
2019-03-22T08:20:19.089Z,997.19
2019-03-22T08:21:19.052Z,997.17
2019-03-22T08:22:18.966Z,997.21
2019-03-22T08:23:18.907Z,997.19
2019-03-22T08:24:18.856Z,997.15
2019-03-22T08:25:18.798Z,997.14
2019-03-22T08:26:18.725Z,997.09
2019-03-22T08:27:18.674Z,997.06
2019-03-22T08:28:18.619Z,997.09
2019-03-22T08:29:18.586Z,997.08
2019-03-22T08:30:18.501Z,997.08
2019-03-22T08:31:18.425Z,997.09
2019-03-22T08:32:18.364Z,997.07
2019-03-22T08:33:18.327Z,997.05
2019-03-22T08:34:18.256Z,997.02
2019-03-22T08:35:18.185Z,997.01
2019-03-22T08:36:18.139Z,997.01
2019-03-22T08:37:18.114Z,996.99
2019-03-22T08:38:18.003Z,997.00
2019-03-22T08:39:17.990Z,996.99
2019-03-22T08:40:17.885Z,996.96
2019-03-22T08:41:17.824Z,996.97
2019-03-22T08:42:17.764Z,996.96
2019-03-22T08:43:17.733Z,996.96
2019-03-22T08:44:17.666Z,996.90
2019-03-22T08:45:17.585Z,996.89
2019-03-22T08:46:17.523Z,996.88
2019-03-22T08:47:17.478Z,996.89
2019-03-22T08:48:17.414Z,996.89
2019-03-22T08:49:17.520Z,996.85
2019-03-22T08:50:17.283Z,996.86
2019-03-22T08:51:17.224Z,996.87
2019-03-22T08:52:17.187Z,996.91
2019-03-22T08:53:17.104Z,996.84
2019-03-22T08:54:17.044Z,996.85
2019-03-22T08:55:16.986Z,996.84
2019-03-22T08:56:16.967Z,996.79
2019-03-22T08:57:16.909Z,996.84
2019-03-22T08:58:18.518Z,996.80
2019-03-22T08:59:16.742Z,996.80
2019-03-22T09:00:16.730Z,996.84
2019-03-22T09:01:16.662Z,996.75
2019-03-22T09:02:16.562Z,996.79
2019-03-22T09:03:16.504Z,996.76
2019-03-22T09:04:16.442Z,996.77
2019-03-22T09:05:16.385Z,996.77
2019-03-22T09:06:16.386Z,996.75
2019-03-22T09:07:16.265Z,996.75
2019-03-22T09:08:16.325Z,996.71
2019-03-22T09:09:16.144Z,996.73
2019-03-22T09:10:16.095Z,996.75
2019-03-22T09:11:18.173Z,996.72
2019-03-22T09:12:15.977Z,996.73
2019-03-22T09:13:15.902Z,996.71
2019-03-22T09:14:15.843Z,996.74
2019-03-22T09:15:15.902Z,996.73
2019-03-22T09:16:15.727Z,996.71
2019-03-22T09:17:15.663Z,996.72
2019-03-22T09:18:15.865Z,996.71
2019-03-22T09:19:15.570Z,996.74
2019-03-22T09:20:15.499Z,996.73
2019-03-22T09:21:15.422Z,996.76
2019-03-22T09:22:15.365Z,996.73
2019-03-22T09:23:15.302Z,996.75
2019-03-22T09:24:15.252Z,996.71
2019-03-22T09:25:15.186Z,996.70
2019-03-22T09:26:15.152Z,996.71
2019-03-22T09:27:15.068Z,996.70
2019-03-22T09:28:15.022Z,996.65
2019-03-22T09:29:14.974Z,996.63
2019-03-22T09:30:14.926Z,996.62
2019-03-22T09:31:14.845Z,996.61
2019-03-22T09:32:14.768Z,996.58
2019-03-22T09:33:14.703Z,996.61
2019-03-22T09:34:14.642Z,996.58
2019-03-22T09:35:14.599Z,996.55
2019-03-22T09:36:14.524Z,996.55
2019-03-22T09:37:14.463Z,996.50
2019-03-22T09:38:14.462Z,996.54
2019-03-22T09:39:14.346Z,996.54
2019-03-22T09:40:14.286Z,996.55
2019-03-22T09:41:14.281Z,996.55
2019-03-22T09:42:14.184Z,996.51
2019-03-22T09:43:14.153Z,996.56
2019-03-22T09:44:14.044Z,996.49
2019-03-22T09:45:14.466Z,996.49
2019-03-22T09:46:13.928Z,996.51
2019-03-22T09:47:16.414Z,996.45
2019-03-22T09:48:13.811Z,996.51
2019-03-22T09:49:13.768Z,996.44
2019-03-22T09:50:13.782Z,996.47
2019-03-22T09:51:13.625Z,996.49
2019-03-22T09:52:13.603Z,996.47
2019-03-22T09:53:13.538Z,996.51
2019-03-22T09:54:13.444Z,996.47
2019-03-22T09:55:14.519Z,996.48
2019-03-22T09:56:13.339Z,996.48
2019-03-22T09:57:13.283Z,996.45
2019-03-22T09:58:13.929Z,996.39
2019-03-22T09:59:13.149Z,996.41
2019-03-22T10:00:13.186Z,996.39
2019-03-22T10:01:23.128Z,996.38
2019-03-22T10:02:13.066Z,996.33
2019-03-22T10:03:12.916Z,996.39
2019-03-22T10:04:12.865Z,996.34
2019-03-22T10:05:12.836Z,996.32
2019-03-22T10:06:12.803Z,996.28
2019-03-22T10:07:12.671Z,996.29
2019-03-22T10:08:12.652Z,996.26
2019-03-22T10:09:12.556Z,996.27
2019-03-22T10:10:12.488Z,996.25
2019-03-22T10:11:12.440Z,996.26
2019-03-22T10:12:12.368Z,996.27
2019-03-22T10:13:12.339Z,996.28
2019-03-22T10:14:12.247Z,996.27
2019-03-22T10:15:12.243Z,996.23
2019-03-22T10:16:12.132Z,996.25
2019-03-22T10:17:12.071Z,996.26
2019-03-22T10:18:12.015Z,996.21
2019-03-22T10:19:11.949Z,996.23
2019-03-22T10:20:11.904Z,996.17
2019-03-22T10:21:21.885Z,996.24
2019-03-22T10:22:11.776Z,996.24
2019-03-22T10:23:11.761Z,996.17
2019-03-22T10:24:11.686Z,996.16
2019-03-22T10:25:11.591Z,996.14
2019-03-22T10:26:11.607Z,996.10
2019-03-22T10:27:11.471Z,996.12
2019-03-22T10:28:11.465Z,996.04
2019-03-22T10:29:11.353Z,996.06
2019-03-22T10:30:11.291Z,996.05
2019-03-22T10:31:11.261Z,996.00
2019-03-22T10:32:11.172Z,996.02
2019-03-22T10:33:22.123Z,996.02
2019-03-22T10:34:11.053Z,996.00
2019-03-22T10:35:11.002Z,996.00
2019-03-22T10:36:10.933Z,995.98
2019-03-22T10:37:10.875Z,995.94
2019-03-22T10:38:16.537Z,995.97
2019-03-22T10:39:10.755Z,995.90
2019-03-22T10:40:10.697Z,995.91
2019-03-22T10:41:10.650Z,995.93
2019-03-22T10:42:10.602Z,995.91
2019-03-22T10:43:10.515Z,995.88
2019-03-22T10:44:10.459Z,995.84
2019-03-22T10:45:10.398Z,995.89
2019-03-22T10:46:10.337Z,995.86
2019-03-22T10:47:10.301Z,995.82
2019-03-22T10:48:10.291Z,995.82
2019-03-22T10:49:10.167Z,995.79
2019-03-22T10:50:10.139Z,995.79
2019-03-22T10:51:10.040Z,995.78
2019-03-22T10:52:09.985Z,995.73
2019-03-22T10:53:09.921Z,995.76
2019-03-22T10:54:09.865Z,995.78
2019-03-22T10:55:28.493Z,995.71
2019-03-22T10:56:09.740Z,995.70
2019-03-22T10:57:09.682Z,995.75
2019-03-22T10:58:20.239Z,995.68
2019-03-22T10:59:09.563Z,995.77
2019-03-22T11:00:09.504Z,995.70
2019-03-22T11:01:09.448Z,995.67
2019-03-22T11:02:09.390Z,995.69
2019-03-22T11:03:09.326Z,995.73
2019-03-22T11:05:09.213Z,995.70
2019-03-22T11:06:09.146Z,995.69
2019-03-22T11:07:09.085Z,995.67
2019-03-22T11:08:09.030Z,995.66
2019-03-22T11:09:08.968Z,995.65
2019-03-22T11:10:11.118Z,995.67
2019-03-22T11:11:08.849Z,995.63
2019-03-22T11:12:12.394Z,995.61
2019-03-22T11:13:08.731Z,995.50
2019-03-22T11:14:08.673Z,995.59
2019-03-22T11:15:08.608Z,995.51
2019-03-22T11:16:08.553Z,995.52
2019-03-22T11:17:08.491Z,995.51
2019-03-22T11:18:08.430Z,995.45
2019-03-22T11:19:08.371Z,995.48
2019-03-22T11:20:08.311Z,995.46
2019-03-22T11:21:08.253Z,995.46
2019-03-22T11:22:08.192Z,995.45
2019-03-22T11:23:08.139Z,995.51
2019-03-22T11:24:08.073Z,995.50
2019-03-22T11:25:08.015Z,995.49
2019-03-22T11:26:07.954Z,995.49
2019-03-22T11:27:07.895Z,995.50
2019-03-22T11:28:07.840Z,995.45
2019-03-22T11:29:07.779Z,995.44
2019-03-22T11:30:07.719Z,995.44
2019-03-22T11:31:07.658Z,995.42
2019-03-22T11:32:12.581Z,995.44
2019-03-22T11:33:07.538Z,995.44
2019-03-22T11:34:07.481Z,995.46
2019-03-22T11:35:07.421Z,995.46
2019-03-22T11:36:07.363Z,995.45
2019-03-22T11:37:07.870Z,995.46
2019-03-22T11:38:07.241Z,995.46
2019-03-22T11:39:15.111Z,995.46
2019-03-22T11:40:07.126Z,995.47
2019-03-22T11:41:07.065Z,995.47
2019-03-22T11:42:07.003Z,995.46
2019-03-22T11:43:08.881Z,995.51
2019-03-22T11:44:06.884Z,995.52
2019-03-22T11:45:06.828Z,995.64
2019-03-22T11:46:06.765Z,995.55
2019-03-22T11:47:06.706Z,995.47
2019-03-22T11:48:06.648Z,995.46
2019-03-22T11:49:06.589Z,995.43
2019-03-22T11:50:06.528Z,995.42
2019-03-22T11:51:06.470Z,995.39
2019-03-22T11:52:06.409Z,995.40
2019-03-22T11:53:06.352Z,995.37
2019-03-22T11:54:06.291Z,995.34
2019-03-22T11:55:06.234Z,995.33
2019-03-22T11:56:06.179Z,995.34
2019-03-22T11:57:06.114Z,995.36
2019-03-22T11:58:06.055Z,995.36
2019-03-22T11:59:06.007Z,995.32
2019-03-22T12:00:05.941Z,995.35
2019-03-22T12:01:05.880Z,995.38
2019-03-22T12:02:05.819Z,995.34
2019-03-22T12:03:05.763Z,995.45
2019-03-22T12:04:05.700Z,995.43
2019-03-22T12:05:05.641Z,995.39
2019-03-22T12:06:05.580Z,995.35
2019-03-22T12:07:05.525Z,995.38
2019-03-22T12:08:05.465Z,995.30
2019-03-22T12:09:05.403Z,995.30
2019-03-22T12:10:05.343Z,995.29
2019-03-22T12:11:05.291Z,995.30
2019-03-22T12:12:05.226Z,995.23
2019-03-22T12:13:05.169Z,995.24
2019-03-22T12:14:05.107Z,995.23
2019-03-22T12:15:05.049Z,995.17
2019-03-22T12:16:04.990Z,995.18
2019-03-22T12:17:04.930Z,995.20
2019-03-22T12:18:04.872Z,995.16
2019-03-22T12:19:04.822Z,995.19
2019-03-22T12:20:04.753Z,995.16
2019-03-22T12:21:04.694Z,995.11
2019-03-22T12:22:04.636Z,995.17
2019-03-22T12:23:04.578Z,995.14
2019-03-22T12:24:04.517Z,995.13
2019-03-22T12:25:04.458Z,995.14
2019-03-22T12:26:06.432Z,995.11
2019-03-22T12:27:04.340Z,995.12
2019-03-22T12:28:04.281Z,995.20
2019-03-22T12:29:04.222Z,995.16